Date,TemperatureHighF,TemperatureAvgF,TemperatureLowF,DewpointHighF,DewpointAvgF,DewpointLowF,HumidityHigh,HumidityAvg,HumidityLow,PressureMaxIn,PressureMinIn,WindSpeedMaxMPH,WindSpeedAvgMPH,GustSpeedMaxMPH,PrecipitationSumIn
2013-1-1,52.0,48.6,46.0,49.0,47.2,46.0,100,94,87,30.21,29.71,28,22,0,0.00
2013-1-2,57.0,54.2,54.0,51.0,48.7,47.0,88,83,78,30.47,30.36,28,25,0,0.00
2013-1-3,59.0,57.0,55.0,54.0,52.4,51.0,89,84,79,30.47,30.39,26,25,0,0.00
2013-1-4,66.0,63.6,61.0,63.0,60.5,53.0,91,88,81,30.36,30.21,34,31,0,0.00
2013-1-5,66.0,64.8,63.0,63.0,62.7,62.0,100,93,90,30.30,30.21,31,29,0,0.00
2013-1-6,70.0,67.3,66.0,64.0,63.3,63.0,91,88,82,30.15,30.12,36,31,0,0.00
2013-1-7,73.0,67.8,64.0,67.0,64.2,62.0,91,88,75,30.36,30.27,26,20,0,0.00
2013-1-8,75.0,70.0,66.0,68.0,64.7,62.0,91,84,76,30.33,30.27,21,17,0,0.00
2013-1-9,82.0,74.8,72.0,78.0,69.5,66.0,85,84,83,30.30,30.24,17,16,0,0.00
2013-1-10,82.0,76.8,70.0,78.0,72.1,64.0,91,85,77,30.24,30.09,18,15,0,0.00
2013-1-11,84.0,79.3,75.0,79.0,73.0,67.0,85,81,76,30.09,30.00,17,14,0,0.00
2013-1-12,82.0,75.3,72.0,78.0,68.0,64.0,85,78,69,30.00,29.94,22,16,0,0.00
2013-1-13,82.0,78.9,75.0,78.0,74.3,70.0,85,84,83,29.97,29.97,17,17,0,0.00
2013-1-14,82.0,75.9,70.0,78.0,71.2,67.0,91,85,77,29.97,29.85,21,15,0,0.00
2013-1-15,75.0,73.8,73.0,70.0,68.8,68.0,83,83,83,29.94,29.94,17,13,0,0.00
2013-1-16,73.0,73.0,73.0,68.0,68.0,68.0,83,83,83,29.97,29.97,6,6,0,0.00
2013-1-17,77.0,76.1,75.0,72.0,71.1,70.0,84,84,83,29.97,29.94,17,16,0,0.00
2013-1-18,77.0,77.0,77.0,72.0,72.0,72.0,84,84,84,30.00,30.00,16,16,0,0.00
2013-1-19,79.0,78.3,77.0,76.0,74.7,72.0,92,89,84,29.94,29.91,18,17,0,0.00
2013-1-20,75.0,74.1,73.0,68.0,67.4,67.0,83,79,76,29.94,29.94,23,15,0,0.00
2013-1-21,77.0,75.5,75.0,72.0,70.5,70.0,84,83,83,29.94,29.85,23,19,0,0.00
2013-1-22,77.0,75.2,73.0,72.0,71.6,71.0,91,87,84,29.97,29.91,17,14,0,0.00
2013-1-23,79.0,74.2,72.0,74.0,70.2,67.0,100,88,76,30.00,29.94,11,7,0,0.00
2013-1-24,75.0,75.0,75.0,70.0,68.9,67.0,83,81,76,29.97,29.91,21,13,0,0.00
2013-1-25,82.0,76.4,72.0,78.0,72.3,69.0,91,86,83,29.97,29.94,17,12,0,0.00
2013-1-26,77.0,74.3,72.0,77.0,72.7,70.0,100,94,83,29.97,29.94,23,13,0,0.00
2013-1-27,88.0,77.8,70.0,83.0,74.8,70.0,100,91,83,30.00,29.94,17,12,0,0.00
2013-1-28,81.0,76.4,73.0,77.0,73.6,68.0,100,91,83,30.03,29.97,29,14,0,0.00
2013-1-29,86.0,77.5,72.0,81.0,75.7,72.0,100,95,85,30.00,29.94,29,12,0,0.00
2013-1-30,88.0,77.9,72.0,83.0,73.7,68.0,91,87,83,29.97,29.91,29,16,0,0.00
2013-1-31,77.0,77.0,77.0,74.0,74.0,74.0,91,91,91,29.91,29.91,29,29,0,0.00
2013-2-2,84.0,80.9,77.0,79.0,75.9,72.0,85,85,84,29.97,29.94,17,15,0,0.00
2013-2-3,88.0,78.8,75.0,83.0,73.8,70.0,86,84,83,29.97,29.94,28,16,0,0.00
2013-2-4,86.0,80.2,73.0,81.0,74.6,68.0,85,83,77,29.97,29.94,22,18,0,0.00
2013-2-5,84.0,78.3,73.0,79.0,72.5,68.0,85,82,77,30.00,29.97,17,15,0,0.00
2013-2-6,88.0,77.5,75.0,81.0,71.9,70.0,83,82,77,30.09,30.00,17,12,0,0.00
2013-2-7,77.0,74.2,70.0,72.0,68.3,62.0,84,81,74,30.03,29.97,28,16,0,0.00
2013-2-8,68.0,62.9,59.0,60.0,58.0,56.0,90,84,74,30.12,30.00,6,6,0,0.00
2013-2-9,66.0,62.7,59.0,63.0,57.6,53.0,91,82,80,30.24,30.12,11,8,0,0.00
2013-2-10,72.0,69.1,64.0,69.0,66.3,62.0,91,91,90,30.09,30.00,11,10,0,0.00
2013-2-11,68.0,65.0,57.0,65.0,62.0,54.0,91,91,89,30.06,30.06,11,9,0,0.00
2013-2-12,61.0,60.0,59.0,58.0,57.0,56.0,90,90,89,30.06,30.00,11,8,0,0.00
2013-2-13,64.0,59.9,55.0,62.0,57.5,52.0,90,89,88,29.97,29.88,10,8,0,0.00
2013-2-14,64.0,62.5,61.0,62.0,56.5,51.0,90,80,71,30.15,30.12,11,10,0,0.00
2013-2-15,64.0,55.0,48.0,55.0,47.1,45.0,87,75,54,30.15,30.09,11,8,0,0.00
2013-2-16,68.0,60.9,54.0,65.0,52.8,47.0,91,76,50,30.15,30.09,34,17,0,0.00
2013-2-17,66.0,65.1,64.0,63.0,58.8,52.0,91,81,64,30.24,30.15,30,26,0,0.00
2013-2-18,68.0,59.9,57.0,60.0,52.3,49.0,79,75,70,30.33,30.27,23,17,0,0.00
2013-2-19,79.0,79.0,79.0,71.0,71.0,71.0,77,77,77,30.18,30.18,10,10,0,0.00
2013-2-20,73.0,72.2,70.0,68.0,67.1,66.0,91,84,83,30.12,30.06,15,9,0,0.00
2013-2-21,81.0,79.9,73.0,73.0,71.9,65.0,77,77,75,30.12,30.03,17,17,0,0.00
2013-2-22,82.0,76.4,73.0,75.0,70.8,68.0,84,82,78,30.03,29.97,17,13,0,0.00
2013-2-23,75.0,70.2,61.0,70.0,66.4,58.0,91,88,83,29.94,29.91,17,13,0,0.00
2013-2-24,64.0,61.3,59.0,63.0,59.4,56.0,100,92,89,29.94,29.83,23,21,0,0.00
2013-2-25,75.0,71.5,70.0,73.0,69.7,67.0,100,94,91,29.77,29.59,29,18,0,0.00
2013-2-26,68.0,59.4,55.0,57.0,51.9,49.0,78,75,66,29.94,29.74,55,39,0,0.00
2013-2-27,72.0,60.6,55.0,63.0,51.9,47.0,78,73,69,30.09,29.97,17,15,0,0.00
2013-2-28,63.0,57.5,54.0,57.0,47.9,41.0,80,70,58,30.18,30.03,23,21,0,0.00
2013-3-1,57.0,53.8,52.0,45.0,41.2,39.0,77,63,57,30.15,29.85,29,21,0,0.00
2013-3-2,52.0,50.2,50.0,43.0,40.4,39.0,76,68,64,30.15,30.15,20,15,0,0.00
2013-3-3,52.0,43.0,41.0,41.0,34.8,33.0,74,71,66,30.30,30.21,17,15,0,0.00
2013-3-4,70.0,57.0,50.0,58.0,49.5,43.0,80,76,66,30.18,30.03,17,13,0,0.00
2013-3-5,73.0,66.4,64.0,68.0,62.1,59.0,91,85,81,30.15,30.00,28,23,0,0.00
2013-3-6,61.0,57.2,55.0,55.0,45.0,43.0,80,63,59,30.39,30.27,30,25,0,0.00
2013-3-7,64.0,59.2,57.0,55.0,49.4,43.0,79,70,59,30.30,30.21,18,14,0,0.00
2013-3-8,70.0,65.1,63.0,62.0,56.1,53.0,74,72,71,30.21,30.15,17,16,0,0.00
2013-3-9,68.0,68.0,68.0,62.0,61.3,60.0,82,79,74,30.06,29.94,16,15,0,0.00
2013-3-10,68.0,63.4,57.0,65.0,61.6,54.0,100,93,89,29.88,29.85,17,15,0,0.00
2013-3-11,68.0,56.2,50.0,49.0,47.0,39.0,78,71,50,30.09,30.00,34,28,0,0.00
2013-3-12,64.0,59.8,55.0,59.0,49.1,45.0,81,67,61,30.24,30.12,17,12,0,0.00
2013-3-13,64.0,57.4,55.0,52.0,47.9,45.0,79,70,64,30.36,30.27,11,8,0,0.00
2013-3-14,64.0,58.8,57.0,59.0,50.6,39.0,81,74,50,30.45,30.36,20,13,0,0.00
2013-3-15,75.0,61.8,57.0,67.0,55.6,51.0,82,80,76,30.36,30.18,11,11,0,0.00
2013-3-16,73.0,65.1,61.0,68.0,60.4,55.0,91,85,80,30.12,29.97,17,15,0,0.00
2013-3-17,68.0,65.3,63.0,62.0,59.3,57.0,82,81,80,29.94,29.91,14,10,0,0.00
2013-4-6,72.0,72.0,72.0,63.0,63.0,63.0,75,75,75,30.12,30.12,22,22,0,0.00
2013-4-7,72.0,67.6,64.0,60.0,59.5,59.0,81,75,67,30.06,30.00,22,19,0,0.00
2013-4-13,72.0,72.0,72.0,60.0,60.0,60.0,67,67,67,29.97,29.97,11,11,0,0.00
2013-4-15,70.0,70.0,70.0,67.0,67.0,67.0,91,91,91,29.83,29.83,11,11,0,0.00
2013-4-20,63.0,63.0,63.0,53.0,53.0,53.0,71,71,71,30.15,30.15,17,17,0,0.00
2013-4-22,70.0,70.0,70.0,62.0,62.0,62.0,74,74,74,30.03,30.03,11,11,0,0.00
2013-4-23,66.0,66.0,66.0,63.0,63.0,63.0,91,91,91,30.03,30.03,11,11,0,0.00
2013-4-24,63.0,63.0,63.0,57.0,57.0,57.0,80,80,80,30.15,30.09,23,23,0,0.00
2013-4-25,66.0,66.0,66.0,61.0,61.0,61.0,82,82,82,30.24,30.24,11,11,0,0.00
2013-6-5,86.0,86.0,86.0,76.0,76.0,76.0,72,72,72,29.94,29.94,14,14,0,0.00
2013-7-17,82.0,82.0,82.0,78.0,78.0,78.0,85,85,85,30.12,30.00,17,10,0,0.00
2013-7-18,82.0,82.0,82.0,78.0,78.0,78.0,85,85,85,30.12,30.12,14,14,0,0.00
2013-7-21,88.0,88.0,88.0,83.0,83.0,83.0,86,86,86,29.97,29.97,13,13,0,0.00
2013-7-22,88.0,88.0,88.0,81.0,81.0,81.0,79,79,79,30.03,30.03,23,23,0,0.00
2013-7-25,90.0,85.0,81.0,80.0,76.1,73.0,77,75,73,30.06,30.00,15,11,0,0.00
2013-7-26,82.0,82.0,82.0,78.0,78.0,78.0,85,85,85,30.06,30.06,17,17,0,0.00
2013-7-29,88.0,82.4,79.0,81.0,74.8,71.0,79,78,77,30.09,30.03,17,14,0,0.00
2013-7-30,84.0,81.2,79.0,77.0,75.3,74.0,84,81,78,30.12,30.06,21,19,0,0.00
2013-8-1,81.0,81.0,81.0,78.0,78.0,78.0,92,92,92,30.06,30.06,17,17,0,0.00
2013-8-3,84.0,84.0,84.0,77.0,77.0,77.0,78,78,78,30.03,30.03,21,21,0,0.00
2013-8-4,84.0,84.0,84.0,82.0,82.0,82.0,92,92,92,30.06,30.06,14,14,0,0.00
2013-8-5,82.0,82.0,82.0,78.0,78.0,78.0,85,85,85,30.09,30.09,14,14,0,0.00
2013-8-6,82.0,82.0,82.0,78.0,78.0,78.0,85,85,85,30.03,30.03,13,13,0,0.00
2013-8-7,86.0,83.7,82.0,79.0,78.4,78.0,85,82,79,29.94,29.94,15,15,0,0.00
2013-8-8,81.0,81.0,81.0,76.0,74.8,70.0,85,82,71,29.91,29.88,24,22,0,0.00
2013-8-23,84.0,84.0,84.0,77.0,77.0,77.0,78,78,78,29.88,29.88,26,26,0,0.00
2013-8-24,81.0,81.0,81.0,76.0,76.0,76.0,85,85,85,29.94,29.94,22,22,0,0.00
2013-8-27,79.0,79.0,79.0,74.0,74.0,74.0,84,84,84,30.06,30.06,6,6,0,0.00
2013-9-2,90.0,90.0,90.0,72.0,72.0,72.0,56,56,56,30.00,30.00,6,6,0,0.00
2013-9-3,82.0,82.0,82.0,75.0,75.0,75.0,78,78,78,29.97,29.97,23,23,0,0.00
2013-9-5,82.0,82.0,82.0,78.0,78.0,78.0,85,85,85,30.03,30.03,0,0,0,0.00
2013-9-7,81.0,81.0,81.0,-99.9,-99.9,-99.9,0,0,100,30.06,30.06,6,6,0,0.00
2013-9-9,79.0,79.0,79.0,-99.9,-99.9,-99.9,0,0,100,30.00,30.00,11,11,0,0.00
2013-9-10,84.0,82.8,82.0,78.0,76.4,74.0,85,80,72,30.09,30.00,23,23,0,0.00
2013-9-14,90.0,90.0,90.0,80.0,80.0,80.0,73,73,73,29.94,29.94,15,15,0,0.00
2013-9-15,86.0,86.0,86.0,-99.9,-99.9,-99.9,0,0,100,29.93,29.93,9,9,0,0.00
2013-9-16,90.0,90.0,90.0,78.0,78.0,78.0,67,67,67,30.06,30.06,23,23,0,0.00
2013-9-20,82.0,82.0,82.0,78.0,78.0,78.0,85,85,85,29.77,29.77,16,16,0,0.00
2013-9-22,82.0,82.0,82.0,78.0,78.0,78.0,85,85,85,29.77,29.77,17,17,0,0.00
2013-9-23,84.0,82.5,81.0,74.0,70.5,67.0,72,68,64,29.85,29.83,17,14,0,0.00
2013-9-26,81.0,81.0,81.0,76.0,76.0,76.0,85,85,85,29.85,29.85,2,2,0,0.00
2013-9-27,81.0,81.0,81.0,76.0,76.0,76.0,85,85,85,29.91,29.91,6,6,0,0.00
2013-9-28,81.0,81.0,81.0,70.0,70.0,70.0,71,71,71,29.97,29.97,17,17,0,0.00
2013-9-29,79.0,79.0,79.0,68.0,68.0,68.0,70,70,70,29.97,29.97,17,17,0,0.00
2013-9-30,79.0,79.0,79.0,71.0,71.0,71.0,77,77,77,29.97,29.97,10,10,0,0.00
2013-10-6,82.0,82.0,82.0,67.0,67.0,67.0,59,59,59,29.94,29.94,11,11,0,0.00
2013-12-29,77.0,77.0,77.0,69.0,69.0,69.0,77,77,77,30.06,30.06,20,20,0,0.00